KATT

Austin City Airport

Austin, Texas, USA
METAR KATT 160951Z AUTO 00000KT 10SM CLR 06/01 A3021 RMK AO2 SLP229 T00610011 $
Observed Flight Rules
Dec-16 @ 09:51 UTC (an hour ago) Visual Flight Rules
Wind Visibility Clouds
Calm 10 miles
  • Clear skies
Temperatures Readings
Current 6°C / 43°F
Dewpoint 1°C / 34°F
Humidity 71%
Altimeter 30.21" Hg
Pressure 1022.9 hPa
Elevation 201
METAR KATT 160951Z AUTO 00000KT 10SM CLR 06/01 A3021 RMK AO2 SLP229 T00610011 $
Observed Flight Rules
Dec-16 @ 09:51 UTC
(an hour ago)
VFR
Wind Visibility
Calm 10 miles
Clouds
  • Clear skies
Temperature Dewpoint
6°C / 43°F 1°C / 34°F
Humidity Altimeter Pressure
71% 30.21" Hg 1022.9 hPa